Time;durP1;ratioP1;P1;durP2;ratioP2;P2;SDS_P1;SDS_P2;PMS_P1;PMS_P2;Temp;Humidity;BMP_temperature;BMP_pressure;BME280_temperature;BME280_humidity;BME280_pressure;Samples;Min_cycle;Max_cycle;Signal;HPM_P1;HPM_P2
2023/01/09 00:01:27;;;;;;;3.25;2.65;;;;;;;5.59;100.00;94144.34;5107247;28;24511;-75
2023/01/09 00:03:55;;;;;;;3.33;2.30;;;;;;;5.54;100.00;94146.41;5105165;28;24440;-76
2023/01/09 00:06:22;;;;;;;2.53;2.30;;;;;;;5.51;100.00;94150.94;5105482;28;24438;-75
2023/01/09 00:08:48;;;;;;;3.13;2.28;;;;;;;5.52;100.00;94145.69;5086124;28;24465;-75
2023/01/09 00:11:15;;;;;;;3.75;2.85;;;;;;;5.51;100.00;94150.94;5105917;28;24436;-76
2023/01/09 00:13:41;;;;;;;4.00;2.83;;;;;;;5.50;100.00;94150.13;5090108;28;24779;-75
2023/01/09 00:16:09;;;;;;;3.50;2.50;;;;;;;5.47;100.00;94146.94;5093094;28;24435;-75
2023/01/09 00:18:36;;;;;;;2.50;2.30;;;;;;;5.51;100.00;94148.38;5103177;28;24981;-75
2023/01/09 00:21:07;;;;;;;2.75;2.40;;;;;;;5.55;100.00;94153.19;5093667;28;24438;-76
2023/01/09 00:23:33;;;;;;;3.70;2.65;;;;;;;5.47;100.00;94147.75;5104837;28;24438;-75
2023/01/09 00:26:04;;;;;;;3.08;2.88;;;;;;;5.45;100.00;94144.50;5093995;28;24441;-75
2023/01/09 00:28:31;;;;;;;3.45;3.15;;;;;;;5.48;100.00;94151.97;5103718;28;24454;-76
2023/01/09 00:30:59;;;;;;;3.40;2.40;;;;;;;5.45;100.00;94148.78;5088507;28;24987;-75
2023/01/09 00:33:29;;;;;;;2.70;2.50;;;;;;;5.45;100.00;94147.06;5095668;28;24444;-76
2023/01/09 00:35:56;;;;;;;2.30;2.10;;;;;;;5.49;100.00;94143.34;5093758;28;25018;-75
2023/01/09 00:38:24;;;;;;;2.27;2.03;;;;;;;5.47;100.00;94140.06;5101712;28;24433;-75
2023/01/09 00:40:50;;;;;;;3.00;2.25;;;;;;;5.47;100.00;94142.63;5094408;28;24439;-75
2023/01/09 00:43:18;;;;;;;2.70;2.10;;;;;;;5.49;100.00;94137.41;5100402;28;24449;-77
2023/01/09 00:45:44;;;;;;;4.13;2.33;;;;;;;5.43;100.00;94140.38;5094674;28;24445;-75
2023/01/09 00:48:15;;;;;;;2.40;2.20;;;;;;;5.48;100.00;94138.31;5099174;28;24460;-76
2023/01/09 00:50:42;;;;;;;2.10;1.90;;;;;;;5.49;100.00;94137.41;5089418;28;24448;-76
2023/01/09 00:53:13;;;;;;;2.00;1.80;;;;;;;5.43;100.00;94140.38;5100252;28;24441;-75
2023/01/09 00:55:41;;;;;;;2.53;1.70;;;;;;;5.55;100.00;94136.97;5098791;28;24432;-76
2023/01/09 00:58:08;;;;;;;2.35;1.52;;;;;;;5.54;100.00;94132.75;5095082;28;24796;-76
2023/01/09 01:00:35;;;;;;;2.08;1.88;;;;;;;5.57;100.00;94133.38;5099339;28;24440;-76
2023/01/09 01:03:01;;;;;;;1.88;1.63;;;;;;;5.54;100.00;94131.00;5093360;28;24441;-76
2023/01/09 01:08:13;;;;;;;1.60;1.40;;;;;;;5.48;100.00;94123.72;5085358;28;24430;-76
2023/01/09 01:10:42;;;;;;;1.70;1.27;;;;;;;5.49;100.00;94122.00;5098176;28;24438;-75
2023/01/09 01:13:08;;;;;;;2.60;1.33;;;;;;;5.55;100.00;94114.66;5097782;28;24448;-76
2023/01/09 01:15:37;;;;;;;1.35;1.08;;;;;;;5.54;100.00;94115.59;5094096;28;24531;-75
2023/01/09 01:18:04;;;;;;;1.20;1.10;;;;;;;5.46;100.00;94119.63;5097480;28;24599;-76
2023/01/09 01:20:30;;;;;;;2.10;1.00;;;;;;;5.51;100.00;94120.13;5093882;28;24442;-76
2023/01/09 01:22:57;;;;;;;0.88;0.82;;;;;;;5.46;100.00;94125.59;5091038;28;24450;-75
2023/01/09 01:25:23;;;;;;;0.93;0.80;;;;;;;5.48;100.00;94122.91;5101035;28;24993;-75
2023/01/09 01:27:51;;;;;;;3.70;0.80;;;;;;;5.41;100.00;94122.50;5100043;28;24436;-75
2023/01/09 01:30:19;;;;;;;1.30;1.00;;;;;;;5.42;100.00;94118.22;5094490;28;24437;-75
2023/01/09 01:32:46;;;;;;;1.48;0.82;;;;;;;5.40;100.00;94118.28;5099955;28;24437;-75
2023/01/09 01:35:12;;;;;;;1.10;0.70;;;;;;;5.42;100.00;94118.22;5090886;28;24439;-77
2023/01/09 01:37:39;;;;;;;0.80;0.80;;;;;;;5.44;100.00;94118.91;5102884;28;24841;-75
2023/01/09 01:40:07;;;;;;;0.90;0.77;;;;;;;5.40;100.00;94109.78;5095585;28;24797;-75
2023/01/09 01:42:34;;;;;;;0.83;0.60;;;;;;;5.38;100.00;94109.91;5097045;28;24445;-76
2023/01/09 01:45:06;;;;;;;2.38;0.77;;;;;;;5.37;100.00;94118.50;5098464;28;24441;-77
2023/01/09 01:47:40;;;;;;;1.20;0.63;;;;;;;5.36;100.00;94119.44;5106602;28;24429;-76
2023/01/09 01:50:13;;;;;;;1.63;0.70;;;;;;;5.41;100.00;94127.63;5089084;28;24808;-75
2023/01/09 01:52:44;;;;;;;1.95;0.95;;;;;;;5.39;100.00;94134.63;5097842;28;24986;-76
2023/01/09 01:55:11;;;;;;;1.53;0.70;;;;;;;5.36;100.00;94129.69;5088888;28;24804;-76
2023/01/09 01:57:42;;;;;;;0.90;0.70;;;;;;;5.39;100.00;94134.63;5106300;28;24449;-76
2023/01/09 02:00:12;;;;;;;0.88;0.80;;;;;;;5.34;100.00;94131.56;5088951;28;24788;-75
2023/01/09 02:02:38;;;;;;;1.92;0.60;;;;;;;5.31;100.00;94135.16;5093273;28;24437;-75
2023/01/09 02:05:06;;;;;;;1.00;0.80;;;;;;;5.29;100.00;94133.59;5096986;28;24441;-75
2023/01/09 02:07:33;;;;;;;1.02;0.80;;;;;;;5.27;100.00;94135.47;5098782;28;24800;-75
2023/01/09 02:10:00;;;;;;;1.25;0.90;;;;;;;5.28;100.00;94134.53;5101380;28;25038;-75
2023/01/09 02:12:27;;;;;;;1.03;0.70;;;;;;;5.29;100.00;94113.06;5105866;28;24445;-75
2023/01/09 02:14:58;;;;;;;1.00;0.70;;;;;;;5.27;100.00;94112.38;5087605;28;24448;-76
2023/01/09 02:17:57;;;;;;;1.30;0.73;;;;;;;5.31;100.00;94104.34;5105670;28;24433;-76
2023/01/09 02:20:42;;;;;;;0.70;0.60;;;;;;;5.27;100.00;94115.75;5088858;28;24438;-75
2023/01/09 02:23:46;;;;;;;2.35;0.70;;;;;;;5.21;100.00;94116.16;5091997;28;24545;-76
2023/01/09 02:26:35;;;;;;;0.60;0.55;;;;;;;5.25;100.00;94122.72;5083217;28;24795;-76
2023/01/09 02:29:47;;;;;;;1.88;0.47;;;;;;;5.26;100.00;94129.50;5094497;28;24444;-75
2023/01/09 02:32:27;;;;;;;0.50;0.50;;;;;;;5.28;100.00;94135.34;5100744;28;24516;-75
2023/01/09 02:35:05;;;;;;;0.55;0.50;;;;;;;5.23;100.00;94124.59;5096888;28;24437;-75
2023/01/09 02:37:41;;;;;;;1.05;0.50;;;;;;;5.25;100.00;94132.19;5090084;28;24441;-75
2023/01/09 02:40:16;;;;;;;0.68;0.50;;;;;;;5.25;100.00;94139.88;5086966;28;24430;-75
2023/01/09 02:42:45;;;;;;;0.55;0.50;;;;;;;5.22;100.00;94143.47;5091982;28;24985;-76
2023/01/09 02:45:12;;;;;;;3.57;0.50;;;;;;;5.23;100.00;94137.44;5086131;28;24619;-75
2023/01/09 02:47:42;;;;;;;1.77;0.40;;;;;;;5.23;100.00;94140.00;5103874;28;24964;-75
2023/01/09 02:50:13;;;;;;;0.85;0.47;;;;;;;5.21;100.00;94134.13;5093823;28;24446;-76
2023/01/09 02:52:55;;;;;;;0.43;0.30;;;;;;;5.23;100.00;94136.63;5089998;28;24441;-76
2023/01/09 02:55:38;;;;;;;0.80;0.40;;;;;;;5.25;100.00;94143.25;5090764;28;24434;-75
2023/01/09 02:58:10;;;;;;;0.40;0.10;;;;;;;5.21;100.00;94146.16;5098154;28;24441;-75
2023/01/09 03:00:51;;;;;;;0.60;0.10;;;;;;;5.24;100.00;94146.75;5109772;28;24421;-76
2023/01/09 03:03:24;;;;;;;0.30;0.20;;;;;;;5.18;100.00;94147.16;5093126;28;24979;-76
2023/01/09 03:05:57;;;;;;;1.15;0.30;;;;;;;5.16;100.00;94150.78;5108741;28;24441;-75
2023/01/09 03:08:30;;;;;;;0.60;0.30;;;;;;;5.12;100.00;94155.31;5096647;28;24434;-75
2023/01/09 03:11:01;;;;;;;0.20;0.10;;;;;;;5.11;100.00;94163.91;5090941;28;24430;-76
2023/01/09 03:13:32;;;;;;;0.10;0.08;;;;;;;5.11;100.00;94153.63;5095944;28;24455;-75
2023/01/09 03:16:02;;;;;;;1.27;0.20;;;;;;;5.15;100.00;94152.50;5084241;28;24564;-75
2023/01/09 03:18:32;;;;;;;0.30;0.20;;;;;;;5.13;100.00;94164.63;5096453;28;24780;-75
2023/01/09 03:20:59;;;;;;;0.50;0.20;;;;;;;5.15;100.00;94162.78;5106473;28;24443;-75
2023/01/09 03:23:26;;;;;;;0.30;0.20;;;;;;;5.17;100.00;94175.50;5095355;28;24477;-75
2023/01/09 03:25:52;;;;;;;0.60;0.10;;;;;;;5.13;100.00;94184.34;5092037;28;25002;-76
2023/01/09 03:28:26;;;;;;;1.70;0.13;;;;;;;5.13;100.00;94194.59;5095216;28;25061;-75
2023/01/09 03:30:52;;;;;;;0.25;0.20;;;;;;;5.06;100.00;94201.88;5097297;28;24436;-76
2023/01/09 03:33:19;;;;;;;0.68;0.13;;;;;;;5.00;100.00;94226.19;5100835;28;24449;-75
2023/01/09 03:35:47;;;;;;;1.45;0.20;;;;;;;4.98;100.00;94248.56;5108324;28;24441;-75
2023/01/09 03:38:13;;;;;;;0.45;0.25;;;;;;;4.95;100.00;94258.22;5097732;28;24513;-75
2023/01/09 03:40:42;;;;;;;0.30;0.13;;;;;;;4.93;100.00;94263.47;5094534;28;24437;-77
2023/01/09 03:43:08;;;;;;;0.08;0.00;;;;;;;4.77;100.00;94252.53;5094080;28;24477;-76
2023/01/09 03:45:35;;;;;;;0.00;0.00;;;;;;;4.75;100.00;94283.41;5108239;28;25645;-76
2023/01/09 03:48:01;;;;;;;0.00;0.00;;;;;;;4.42;100.00;94283.78;5090444;28;24441;-76
2023/01/09 03:50:28;;;;;;;0.00;0.00;;;;;;;4.27;100.00;94292.44;5107591;28;24994;-75
2023/01/09 03:52:55;;;;;;;0.10;0.00;;;;;;;4.09;100.00;94292.66;5089118;28;24461;-75
2023/01/09 03:55:22;;;;;;;0.00;0.00;;;;;;;3.97;100.00;94300.22;5102470;28;24474;-75
2023/01/09 03:57:49;;;;;;;0.17;0.13;;;;;;;4.01;100.00;94307.66;5100029;28;24439;-75
2023/01/09 04:00:16;;;;;;;1.17;0.10;;;;;;;3.94;100.00;94308.94;5087198;28;24441;-77
2023/01/09 04:02:42;;;;;;;0.70;0.20;;;;;;;3.93;100.00;94306.47;5099438;28;24449;-75
2023/01/09 04:05:09;;;;;;;1.40;0.10;;;;;;;3.97;100.00;94315.59;5101692;28;24437;-76
2023/01/09 04:07:35;;;;;;;0.20;0.10;;;;;;;3.97;100.00;94331.81;5092740;28;24437;-75
2023/01/09 04:10:04;;;;;;;0.10;0.00;;;;;;;4.09;100.00;94345.63;5099888;28;24450;-76
2023/01/09 04:12:30;;;;;;;0.20;0.10;;;;;;;4.04;100.00;94355.31;5089108;28;24446;-75
2023/01/09 04:14:57;;;;;;;1.65;0.15;;;;;;;4.09;100.00;94361.00;5104510;28;24438;-75
2023/01/09 04:17:23;;;;;;;0.60;0.10;;;;;;;4.08;100.00;94359.38;5089497;28;24660;-75
2023/01/09 04:19:50;;;;;;;0.85;0.15;;;;;;;3.97;100.00;94369.41;5093890;28;24438;-75
2023/01/09 04:22:16;;;;;;;0.60;0.00;;;;;;;3.93;100.00;94370.50;5100509;28;24445;-75
2023/01/09 04:24:43;;;;;;;0.50;0.08;;;;;;;3.92;100.00;94382.47;5097400;28;24438;-75
2023/01/09 04:27:11;;;;;;;0.00;0.00;;;;;;;3.96;100.00;94381.38;5096672;28;24438;-75
2023/01/09 04:29:37;;;;;;;0.52;0.20;;;;;;;3.94;100.00;94390.91;5097593;28;24511;-76
2023/01/09 04:32:04;;;;;;;0.85;0.20;;;;;;;4.08;100.00;94390.94;5094109;28;24438;-77
2023/01/09 04:34:30;;;;;;;1.00;0.32;;;;;;;4.16;100.00;94390.47;5088065;28;24446;-75
2023/01/09 04:36:57;;;;;;;1.10;0.10;;;;;;;4.06;100.00;94408.13;5093954;28;24438;-75
2023/01/09 04:39:23;;;;;;;2.10;0.50;;;;;;;4.07;100.00;94401.25;5089075;28;24458;-75
2023/01/09 04:41:50;;;;;;;0.82;0.50;;;;;;;4.05;100.00;94397.97;5091814;28;24430;-76
2023/01/09 04:44:19;;;;;;;1.67;0.80;;;;;;;3.98;100.00;94412.06;5090996;28;24529;-75
2023/01/09 04:46:46;;;;;;;3.33;0.50;;;;;;;3.91;100.00;94403.91;5090744;28;24440;-76
2023/01/09 04:49:13;;;;;;;1.75;0.47;;;;;;;3.95;100.00;94397.69;5099586;28;25017;-75
2023/01/09 04:51:39;;;;;;;2.53;0.60;;;;;;;3.88;100.00;94392.09;5096539;28;24449;-75
2023/01/09 04:54:06;;;;;;;1.48;0.30;;;;;;;3.91;100.00;94393.66;5103492;28;24441;-75
2023/01/09 04:56:33;;;;;;;1.27;0.50;;;;;;;3.86;100.00;94404.16;5093218;28;24442;-75
2023/01/09 04:58:59;;;;;;;1.75;0.32;;;;;;;3.95;100.00;94407.91;5096544;28;24425;-76
2023/01/09 05:01:27;;;;;;;1.48;1.02;;;;;;;3.87;100.00;94408.38;5083074;28;24438;-75
2023/01/09 05:03:54;;;;;;;0.50;0.40;;;;;;;4.04;100.00;94409.09;5105260;28;24437;-75
2023/01/09 05:06:20;;;;;;;1.45;0.47;;;;;;;4.03;100.00;94418.53;5084841;28;24445;-75
2023/01/09 05:08:47;;;;;;;1.67;0.60;;;;;;;3.97;100.00;94436.00;5106219;28;24445;-76
2023/01/09 05:11:13;;;;;;;0.93;0.50;;;;;;;3.94;100.00;94447.28;5076041;28;24450;-76
2023/01/09 05:13:40;;;;;;;6.40;0.70;;;;;;;3.91;100.00;94442.31;5081643;28;25081;-75
2023/01/09 05:16:07;;;;;;;0.70;0.30;;;;;;;3.87;100.00;94448.53;5081610;28;24444;-76
2023/01/09 05:18:36;;;;;;;1.42;0.40;;;;;;;3.83;100.00;94454.75;5088804;28;24820;-75
2023/01/09 05:21:02;;;;;;;1.25;0.50;;;;;;;3.84;100.00;94453.81;5075430;28;24529;-76
2023/01/09 05:23:29;;;;;;;1.90;0.63;;;;;;;3.75;100.00;94447.50;5077450;28;24447;-77
2023/01/09 05:25:55;;;;;;;2.50;0.43;;;;;;;3.82;100.00;94459.03;5082700;28;24439;-76
2023/01/09 05:28:22;;;;;;;1.45;0.40;;;;;;;3.74;100.00;94462.94;5082069;28;24447;-76
2023/01/09 05:30:49;;;;;;;2.30;0.70;;;;;;;3.63;100.00;94471.22;5087407;28;24457;-77
2023/01/09 05:33:16;;;;;;;0.63;0.38;;;;;;;3.68;100.00;94471.00;5084247;28;24442;-77
2023/01/09 05:35:43;;;;;;;3.30;0.40;;;;;;;3.60;100.00;94466.31;5093860;28;24532;-76
2023/01/09 05:38:10;;;;;;;0.98;0.30;;;;;;;3.62;100.00;94459.34;5087832;28;24422;-76
2023/01/09 05:40:36;;;;;;;1.50;0.50;;;;;;;3.57;100.00;94474.16;5090544;28;24437;-76
2023/01/09 05:43:03;;;;;;;1.83;0.50;;;;;;;3.50;100.00;94480.53;5087898;28;24445;-74
2023/01/09 05:45:29;;;;;;;3.23;0.97;;;;;;;3.46;100.00;94479.03;5081866;28;24864;-76
2023/01/09 05:47:56;;;;;;;3.33;1.60;;;;;;;3.40;100.00;94475.91;5088394;28;24441;-76
2023/01/09 05:50:22;;;;;;;6.63;2.45;;;;;;;3.33;100.00;94492.50;5091151;28;25067;-76
2023/01/09 05:52:50;;;;;;;5.72;2.60;;;;;;;3.37;100.00;94480.34;5088206;28;24442;-76
2023/01/09 05:55:17;;;;;;;5.05;1.65;;;;;;;3.37;100.00;94478.66;5074172;28;24471;-76
2023/01/09 05:57:44;;;;;;;4.60;0.93;;;;;;;3.32;100.00;94475.50;5073653;28;24445;-76
2023/01/09 06:00:11;;;;;;;6.13;1.17;;;;;;;3.24;100.00;94475.09;5075760;28;24437;-75
2023/01/09 06:02:38;;;;;;;3.10;0.80;;;;;;;3.20;100.00;94483.84;5074461;28;24449;-75
2023/01/09 06:05:05;;;;;;;3.65;0.73;;;;;;;3.26;100.00;94480.13;5074227;28;24449;-75
2023/01/09 06:07:35;;;;;;;1.98;0.80;;;;;;;3.22;100.00;94479.47;5077405;28;24449;-75
2023/01/09 06:10:03;;;;;;;3.72;0.93;;;;;;;3.29;100.00;94492.75;5074512;28;24819;-75
2023/01/09 06:12:29;;;;;;;3.38;0.82;;;;;;;3.15;100.00;94488.38;5083002;28;25085;-75
2023/01/09 06:14:56;;;;;;;3.67;1.13;;;;;;;3.17;100.00;94501.94;5079947;28;24972;-75
2023/01/09 06:17:22;;;;;;;2.50;0.88;;;;;;;3.15;100.00;94504.59;5092921;28;25000;-75
2023/01/09 06:19:50;;;;;;;4.15;0.93;;;;;;;3.18;100.00;94501.00;5091245;28;24433;-75
2023/01/09 06:22:16;;;;;;;4.38;1.20;;;;;;;3.12;100.00;94499.63;5082843;28;24438;-74
2023/01/09 06:24:43;;;;;;;2.60;1.20;;;;;;;3.12;100.00;94496.25;5089655;28;24511;-75
2023/01/09 06:27:11;;;;;;;3.73;0.97;;;;;;;3.13;100.00;94495.31;5089722;28;24526;-75
2023/01/09 06:29:38;;;;;;;6.13;1.15;;;;;;;3.17;100.00;94499.38;5086116;28;24444;-75
2023/01/09 06:32:05;;;;;;;5.93;1.10;;;;;;;3.30;100.00;94502.94;5097525;28;24804;-72
2023/01/09 06:34:31;;;;;;;2.75;0.70;;;;;;;3.34;100.00;94496.72;5102526;28;24446;-75
2023/01/09 06:36:58;;;;;;;2.40;0.82;;;;;;;3.43;100.00;94499.69;5096203;28;24450;-75
2023/01/09 06:39:24;;;;;;;3.63;0.90;;;;;;;3.34;100.00;94506.97;5101065;28;24438;-75
2023/01/09 06:41:51;;;;;;;4.80;1.08;;;;;;;3.37;100.00;94503.38;5097323;28;24449;-76
2023/01/09 06:44:19;;;;;;;2.63;0.87;;;;;;;3.53;100.00;94508.50;5090253;28;24995;-76
2023/01/09 06:46:45;;;;;;;3.53;1.38;;;;;;;3.46;100.00;94512.31;5101200;28;24441;-76
2023/01/09 06:49:12;;;;;;;2.75;0.90;;;;;;;3.48;100.00;94518.97;5099529;28;24481;-75
2023/01/09 06:51:38;;;;;;;4.50;1.40;;;;;;;3.44;100.00;94525.19;5096111;28;24461;-76
2023/01/09 06:54:05;;;;;;;3.55;0.98;;;;;;;3.52;100.00;94525.63;5090544;28;24451;-75
2023/01/09 06:56:31;;;;;;;3.88;1.00;;;;;;;3.43;100.00;94528.66;5103775;28;24434;-75
2023/01/09 06:58:58;;;;;;;3.42;0.77;;;;;;;3.48;100.00;94530.97;5095667;28;24433;-75
2023/01/09 07:01:25;;;;;;;3.95;0.90;;;;;;;3.46;100.00;94531.06;5088924;28;24427;-73
2023/01/09 07:03:52;;;;;;;2.30;0.80;;;;;;;3.66;100.00;94531.69;5091254;28;24437;-74
2023/01/09 07:06:19;;;;;;;8.20;1.10;;;;;;;3.48;100.00;94533.53;5087475;28;24435;-74
2023/01/09 07:08:45;;;;;;;2.85;1.00;;;;;;;3.49;100.00;94530.06;5084539;28;24437;-73
2023/01/09 07:11:11;;;;;;;5.05;1.00;;;;;;;3.38;100.00;94534.03;5095680;28;24457;-73
2023/01/09 07:13:38;;;;;;;4.20;0.75;;;;;;;3.43;100.00;94533.78;5091283;28;25018;-73
2023/01/09 07:16:05;;;;;;;2.40;0.80;;;;;;;3.40;100.00;94537.31;5091580;28;24911;-74
2023/01/09 07:18:33;;;;;;;5.10;0.90;;;;;;;3.45;100.00;94528.56;5086894;28;24442;-73
2023/01/09 07:21:00;;;;;;;3.33;1.08;;;;;;;3.44;100.00;94526.91;5085677;28;24431;-74
2023/01/09 07:23:26;;;;;;;3.13;1.13;;;;;;;3.45;100.00;94526.84;5094072;28;24441;-74
2023/01/09 07:25:53;;;;;;;6.00;1.00;;;;;;;3.39;100.00;94529.75;5088250;28;24493;-75
2023/01/09 07:28:19;;;;;;;3.28;0.90;;;;;;;3.46;100.00;94533.63;5101553;28;24441;-73
2023/01/09 07:30:46;;;;;;;3.30;0.82;;;;;;;3.35;100.00;94525.69;5076295;28;25007;-73
2023/01/09 07:33:12;;;;;;;1.75;0.80;;;;;;;3.44;100.00;94524.38;5078406;28;24450;-73
2023/01/09 07:35:40;;;;;;;3.17;1.08;;;;;;;3.47;100.00;94522.47;5092677;28;24433;-74
2023/01/09 07:38:07;;;;;;;10.70;1.17;;;;;;;3.36;100.00;94540.97;5094811;28;24438;-73
2023/01/09 07:40:33;;;;;;;4.75;1.30;;;;;;;3.37;100.00;94534.09;5097793;28;24433;-73
2023/01/09 07:42:59;;;;;;;3.93;1.00;;;;;;;3.33;100.00;94540.28;5091330;28;24455;-72
2023/01/09 07:45:26;;;;;;;5.60;1.20;;;;;;;3.42;100.00;94549.22;5103929;28;24464;-73
2023/01/09 07:47:52;;;;;;;3.67;0.98;;;;;;;3.38;100.00;94541.72;5103397;28;24440;-73
2023/01/09 07:50:19;;;;;;;4.63;1.17;;;;;;;3.34;100.00;94547.09;5095665;28;24445;-73
2023/01/09 07:52:47;;;;;;;5.75;1.10;;;;;;;3.44;100.00;94548.22;5083042;28;24431;-73
2023/01/09 07:55:14;;;;;;;4.20;1.10;;;;;;;3.53;100.00;94552.03;5079050;28;24442;-74
2023/01/09 07:57:40;;;;;;;4.50;1.00;;;;;;;3.58;100.00;94553.41;5107328;28;24487;-74
2023/01/09 08:00:09;;;;;;;5.30;1.02;;;;;;;3.56;100.00;94555.25;5089536;28;24435;-73
2023/01/09 08:02:36;;;;;;;2.87;1.00;;;;;;;3.59;100.00;94561.91;5097002;28;24516;-73
2023/01/09 08:05:02;;;;;;;4.63;1.13;;;;;;;3.64;100.00;94565.06;5080167;28;24435;-73
2023/01/09 08:07:29;;;;;;;3.30;1.17;;;;;;;3.75;100.00;94574.72;5083023;28;24438;-73
2023/01/09 08:09:57;;;;;;;4.18;1.33;;;;;;;3.75;100.00;94574.72;5078648;28;24435;-73
2023/01/09 08:12:23;;;;;;;5.72;1.25;;;;;;;3.69;100.00;94575.88;5078380;28;25047;-75
2023/01/09 08:14:50;;;;;;;5.90;1.05;;;;;;;3.62;100.00;94577.13;5078593;28;24544;-75
2023/01/09 08:17:17;;;;;;;3.95;1.20;;;;;;;3.56;100.00;94577.44;5078413;28;24435;-74
2023/01/09 08:19:44;;;;;;;3.30;0.77;;;;;;;3.58;100.00;94573.06;5088114;28;24446;-75
2023/01/09 08:22:10;;;;;;;3.22;1.10;;;;;;;3.75;100.00;94574.72;5095866;28;24820;-76
2023/01/09 08:24:37;;;;;;;3.28;0.80;;;;;;;3.72;100.00;94575.72;5103601;28;24434;-74
2023/01/09 08:27:04;;;;;;;2.65;0.93;;;;;;;3.79;100.00;94573.63;5097971;28;24817;-75
2023/01/09 08:29:31;;;;;;;2.78;0.93;;;;;;;3.80;100.00;94575.28;5100318;28;24425;-75
2023/01/09 08:31:57;;;;;;;2.53;0.88;;;;;;;3.86;100.00;94577.50;5098212;28;24465;-73
2023/01/09 08:34:24;;;;;;;2.55;1.00;;;;;;;3.77;100.00;94571.16;5103573;28;24425;-74
2023/01/09 08:36:52;;;;;;;3.88;0.85;;;;;;;3.80;100.00;94581.22;5098031;28;24426;-73
2023/01/09 08:39:18;;;;;;;4.28;0.93;;;;;;;3.93;100.00;94570.28;5105148;28;24458;-73
2023/01/09 08:47:16;;;;;;;4.78;1.02;;;;;;;4.19;100.00;94576.50;5095940;28;24425;-74
2023/01/09 08:49:42;;;;;;;3.88;1.17;;;;;;;4.20;100.00;94570.50;5093034;28;24430;-74
2023/01/09 08:52:09;;;;;;;3.25;1.40;;;;;;;4.18;100.00;94562.88;5099184;28;24450;-74
2023/01/09 08:54:37;;;;;;;7.75;1.30;;;;;;;4.27;100.00;94559.81;5103485;28;24818;-74
2023/01/09 08:57:04;;;;;;;3.15;1.50;;;;;;;4.25;100.00;94566.72;5099180;28;24480;-73
2023/01/09 08:59:32;;;;;;;4.43;1.00;;;;;;;4.25;100.00;94563.34;5103284;28;24436;-74
2023/01/09 09:01:58;;;;;;;3.25;1.08;;;;;;;4.24;100.00;94575.34;5098805;28;24963;-74
2023/01/09 09:04:25;;;;;;;2.80;0.70;;;;;;;4.22;100.00;94573.78;5098621;28;24438;-74
2023/01/09 09:06:51;;;;;;;2.22;0.70;;;;;;;4.26;100.00;94576.06;5083592;28;24438;-76
2023/01/09 09:09:18;;;;;;;5.05;1.02;;;;;;;4.35;100.00;94583.25;5075293;28;24453;-74
2023/01/09 09:11:44;;;;;;;5.72;2.20;;;;;;;4.40;100.00;94587.28;5091428;28;24462;-74
2023/01/09 09:16:56;;;;;;;3.05;1.90;;;;;;;4.48;100.00;94596.16;5093949;28;24425;-74
2023/01/09 09:19:23;;;;;;;2.65;1.13;;;;;;;4.49;100.00;94590.16;5091733;28;24430;-74
2023/01/09 09:21:49;;;;;;;5.35;1.20;;;;;;;4.58;100.00;94594.72;5103498;28;24433;-74
2023/01/09 09:24:15;;;;;;;4.85;1.10;;;;;;;4.56;100.00;94605.97;5098717;28;24437;-74
2023/01/09 09:26:42;;;;;;;3.47;1.00;;;;;;;4.64;100.00;94608.13;5092803;28;24442;-74
2023/01/09 09:29:08;;;;;;;2.78;0.98;;;;;;;4.73;100.00;94597.31;5082558;28;24476;-74
2023/01/09 09:31:37;;;;;;;4.93;1.23;;;;;;;4.70;100.00;94597.50;5100363;28;24441;-74
2023/01/09 09:34:05;;;;;;;3.28;1.13;;;;;;;4.67;100.00;94610.50;5099840;28;24885;-74
2023/01/09 09:36:31;;;;;;;3.50;0.93;;;;;;;4.65;100.00;94610.59;5084662;28;24438;-74
2023/01/09 09:38:58;;;;;;;5.20;0.98;;;;;;;4.63;100.00;94614.97;5100268;28;24967;-73
2023/01/09 09:44:47;;;;;;;2.80;0.98;;;;;;;4.62;100.00;94613.34;5064576;28;24421;-73
2023/01/09 09:47:31;;;;;;;3.30;1.05;;;;;;;4.71;100.00;94601.69;5084695;28;24460;-73
2023/01/09 09:50:11;;;;;;;3.38;1.27;;;;;;;4.71;100.00;94602.56;5089289;28;24421;-73
2023/01/09 09:52:48;;;;;;;3.50;0.90;;;;;;;4.75;100.00;94606.59;5097617;28;24465;-74
2023/01/09 09:55:19;;;;;;;2.75;1.10;;;;;;;4.77;100.00;94609.06;5101798;28;24421;-73
2023/01/09 09:57:48;;;;;;;3.10;1.27;;;;;;;4.80;100.00;94609.69;5093874;28;24441;-74
2023/01/09 10:00:18;;;;;;;4.82;1.23;;;;;;;4.81;100.00;94613.91;5101623;28;24437;-73
2023/01/09 10:02:50;;;;;;;2.92;1.02;;;;;;;4.84;100.00;94620.59;5093719;28;24434;-74
2023/01/09 10:05:22;;;;;;;10.40;4.68;;;;;;;4.83;100.00;94619.78;5100796;28;24528;-74
2023/01/09 10:07:51;;;;;;;5.93;2.60;;;;;;;4.96;100.00;94622.44;5086337;28;24663;-73
2023/01/09 10:10:24;;;;;;;7.25;3.53;;;;;;;4.80;100.00;94621.69;5088618;28;24434;-75
2023/01/09 10:12:54;;;;;;;2.33;1.05;;;;;;;4.79;100.00;94618.31;5086673;28;24531;-75
2023/01/09 10:15:29;;;;;;;3.70;1.60;;;;;;;4.83;100.00;94619.78;5096458;28;24531;-74
2023/01/09 10:18:05;;;;;;;2.58;1.20;;;;;;;4.75;100.00;94613.47;5085630;28;24425;-75
2023/01/09 10:20:48;;;;;;;4.55;1.33;;;;;;;4.81;100.00;94611.34;5097954;28;24426;-75
2023/01/09 10:23:40;;;;;;;2.67;1.00;;;;;;;4.82;100.00;94600.19;5093106;28;24434;-75
2023/01/09 10:26:11;;;;;;;3.85;0.95;;;;;;;4.84;100.00;94595.78;5086393;28;24438;-75
2023/01/09 10:29:03;;;;;;;3.40;0.90;;;;;;;4.90;100.00;94594.59;5100710;28;24449;-74
2023/01/09 10:31:35;;;;;;;3.55;1.05;;;;;;;4.95;100.00;94596.88;5090165;28;24960;-74
2023/01/09 10:34:15;;;;;;;6.82;1.45;;;;;;;4.93;100.00;94581.59;5097443;28;24825;-74
2023/01/09 10:37:01;;;;;;;4.10;1.42;;;;;;;5.03;100.00;94589.53;5083415;28;24441;-74
2023/01/09 10:39:33;;;;;;;4.97;1.13;;;;;;;5.03;100.00;94577.53;5094135;28;24456;-75
2023/01/09 10:42:04;;;;;;;4.30;1.90;;;;;;;5.06;100.00;94581.66;5100480;28;24433;-74
2023/01/09 10:44:36;;;;;;;5.47;1.13;;;;;;;5.10;100.00;94581.38;5098176;28;24433;-75
2023/01/09 10:47:07;;;;;;;3.30;1.00;;;;;;;5.05;100.00;94588.53;5091058;28;24472;-74
2023/01/09 10:49:35;;;;;;;3.85;1.33;;;;;;;5.10;100.00;94590.81;5093141;28;24435;-74
2023/01/09 10:52:15;;;;;;;6.15;1.20;;;;;;;5.12;100.00;94588.16;5105751;28;24502;-72
2023/01/09 10:54:51;;;;;;;3.42;1.08;;;;;;;5.15;100.00;94600.81;5080307;28;24806;-74
2023/01/09 10:57:39;;;;;;;6.70;1.58;;;;;;;5.14;100.00;94588.91;5083861;28;24431;-74
2023/01/09 11:00:07;;;;;;;6.50;1.30;;;;;;;5.20;100.00;94573.97;5100054;28;24437;-74
2023/01/09 11:02:35;;;;;;;11.25;1.90;;;;;;;5.23;100.00;94578.09;5086123;28;24438;-74
2023/01/09 11:05:01;;;;;;;4.40;1.70;;;;;;;5.24;100.00;94575.44;5100532;28;25009;-74
2023/01/09 11:07:34;;;;;;;6.13;1.50;;;;;;;5.33;100.00;94571.47;5084922;28;24457;-74
2023/01/09 11:10:03;;;;;;;2.88;1.27;;;;;;;5.41;100.00;94566.66;5087594;28;24954;-74
2023/01/09 11:12:31;;;;;;;6.50;1.80;;;;;;;5.46;100.00;94569.81;5087319;28;24458;-74
2023/01/09 11:15:27;;;;;;;2.90;1.15;;;;;;;5.55;100.00;94561.50;5088227;28;24446;-74
2023/01/09 11:17:54;;;;;;;3.42;1.40;;;;;;;5.53;100.00;94558.22;5095797;28;24545;-74
2023/01/09 11:20:25;;;;;;;3.45;1.20;;;;;;;5.64;100.00;94565.28;5091114;28;24434;-74
2023/01/09 11:22:55;;;;;;;2.20;1.00;;;;;;;5.73;100.00;94556.16;5080700;28;24519;-74
2023/01/09 11:25:23;;;;;;;4.65;1.45;;;;;;;5.76;100.00;94563.66;5099672;28;25013;-74
2023/01/09 11:28:05;;;;;;;4.30;1.17;;;;;;;5.83;100.00;94560.63;5089064;28;24441;-74
2023/01/09 11:30:35;;;;;;;7.07;1.00;;;;;;;5.93;100.00;94567.75;5092844;28;24755;-73
2023/01/09 11:33:14;;;;;;;5.73;1.23;;;;;;;5.95;100.00;94563.34;5083194;28;25003;-74
2023/01/09 11:35:54;;;;;;;3.13;0.90;;;;;;;6.01;100.00;94562.97;5098017;28;24431;-74
2023/01/09 11:38:22;;;;;;;4.70;1.10;;;;;;;5.93;100.00;94560.91;5097537;28;25002;-74
2023/01/09 11:40:51;;;;;;;3.65;1.20;;;;;;;6.01;100.00;94552.69;5103240;28;24980;-74
2023/01/09 11:43:29;;;;;;;5.47;1.33;;;;;;;6.05;100.00;94549.81;5080962;28;24804;-74
2023/01/09 11:45:57;;;;;;;5.22;1.23;;;;;;;6.04;100.00;94553.31;5102069;28;24465;-74
2023/01/09 11:48:36;;;;;;;3.65;1.00;;;;;;;6.00;100.00;94554.41;5084964;28;24443;-73
2023/01/09 11:51:06;;;;;;;4.07;1.10;;;;;;;6.09;100.00;94553.00;5092359;28;24537;-73
2023/01/09 11:53:53;;;;;;;2.33;0.90;;;;;;;6.10;100.00;94540.97;5096315;28;24438;-73
2023/01/09 11:56:20;;;;;;;3.85;1.02;;;;;;;6.09;100.00;94552.19;5094911;28;24544;-74
2023/01/09 11:58:46;;;;;;;2.83;1.10;;;;;;;6.03;100.00;94551.66;5088912;28;25349;-73